createdAt,value
2022-11-05T00:01:06.443Z,99239.00
2022-11-05T00:03:54.838Z,99250.52
2022-11-05T00:06:41.051Z,99267.15
2022-11-05T00:09:29.756Z,99279.38
2022-11-05T00:12:21.983Z,99283.83
2022-11-05T00:15:08.421Z,99279.85
2022-11-05T00:17:36.580Z,99282.52
2022-11-05T00:20:06.014Z,99285.67
2022-11-05T00:22:52.161Z,99290.23
2022-11-05T00:25:22.060Z,99300.46
2022-11-05T00:27:52.473Z,99302.73
2022-11-05T00:30:25.788Z,99304.66
2022-11-05T00:32:54.113Z,99311.48
2022-11-05T00:35:22.666Z,99309.60
2022-11-05T00:37:53.186Z,99312.05
2022-11-05T00:40:21.116Z,99315.38
2022-11-05T00:43:07.487Z,99318.25
2022-11-05T00:45:35.430Z,99318.77
2022-11-05T00:48:21.801Z,99324.73
2022-11-05T00:50:49.838Z,99328.64
2022-11-05T00:53:17.723Z,99328.85
2022-11-05T00:55:46.424Z,99338.08
2022-11-05T00:58:19.328Z,99340.41
2022-11-05T01:04:24.985Z,99368.50
2022-11-05T01:06:53.497Z,99376.11
2022-11-05T01:09:22.478Z,99370.55
2022-11-05T01:12:10.530Z,99368.75
2022-11-05T01:14:38.935Z,99382.33
2022-11-05T01:17:07.261Z,99385.19
2022-11-05T01:19:37.066Z,99393.35
2022-11-05T01:22:07.246Z,99395.14
2022-11-05T01:24:38.127Z,99395.41
2022-11-05T01:27:07.566Z,99399.82
2022-11-05T01:29:36.498Z,99399.16
2022-11-05T01:32:05.191Z,99401.06
2022-11-05T01:34:34.099Z,99406.39
2022-11-05T01:37:01.865Z,99407.75
2022-11-05T01:39:29.637Z,99416.22
2022-11-05T01:41:58.855Z,99410.05
2022-11-05T01:44:57.134Z,99408.04
2022-11-05T01:47:43.006Z,99418.38
2022-11-05T01:50:19.981Z,99423.80
2022-11-05T01:52:52.466Z,99417.55
2022-11-05T01:55:24.909Z,99411.65
2022-11-05T01:57:56.528Z,99414.33
2022-11-05T02:00:24.805Z,99422.03
2022-11-05T02:02:52.771Z,99422.55
2022-11-05T02:05:20.958Z,99410.85
2022-11-05T02:07:49.457Z,99416.42
2022-11-05T02:10:20.638Z,99413.96
2022-11-05T02:12:48.791Z,99418.85
2022-11-05T02:15:25.168Z,99417.61
2022-11-05T02:18:24.998Z,99424.29
2022-11-05T02:21:18.843Z,99433.02
2022-11-05T02:24:24.373Z,99446.92
2022-11-05T02:27:18.986Z,99442.59
2022-11-05T02:29:56.974Z,99461.30
2022-11-05T02:32:33.628Z,99458.86
2022-11-05T02:35:27.231Z,99460.97
2022-11-05T02:38:06.515Z,99464.66
2022-11-05T02:40:46.916Z,99472.16
2022-11-05T02:43:35.664Z,99476.92
2022-11-05T02:46:06.125Z,99483.71
2022-11-05T02:49:05.930Z,99485.67
2022-11-05T02:51:51.481Z,99490.47
2022-11-05T02:54:38.597Z,99502.72
2022-11-05T02:57:07.080Z,99504.02
2022-11-05T02:59:34.918Z,99499.60
2022-11-05T03:02:04.645Z,99514.30
2022-11-05T03:04:32.811Z,99506.19
2022-11-05T03:07:30.793Z,99508.72
2022-11-05T03:10:17.688Z,99528.14
2022-11-05T03:13:01.094Z,99522.16
2022-11-05T03:15:47.002Z,99536.65
2022-11-05T03:18:33.543Z,99537.55
2022-11-05T03:21:05.449Z,99538.11
2022-11-05T03:23:46.701Z,99512.02
2022-11-05T03:26:29.794Z,99545.65
2022-11-05T03:29:02.510Z,99555.28
2022-11-05T03:31:31.246Z,99561.39
2022-11-05T03:34:01.183Z,99569.77
2022-11-05T03:36:34.404Z,99572.19
2022-11-05T03:39:09.651Z,99584.21
2022-11-05T03:41:43.224Z,99587.01
2022-11-05T03:44:15.916Z,99590.14
2022-11-05T03:46:49.393Z,99603.20
2022-11-05T03:49:25.342Z,99605.49
2022-11-05T03:52:06.944Z,99607.40
2022-11-05T03:54:35.745Z,99616.12
2022-11-05T03:57:09.089Z,99623.75
2022-11-05T03:59:44.030Z,99627.21
2022-11-05T04:02:13.620Z,99634.50
2022-11-05T04:04:41.711Z,99627.15
2022-11-05T04:07:29.548Z,99624.85
2022-11-05T04:10:16.428Z,99638.10
2022-11-05T04:13:02.427Z,99643.83
2022-11-05T04:15:51.398Z,99641.38
2022-11-05T04:18:19.128Z,99651.80
2022-11-05T04:21:05.724Z,99662.39
2022-11-05T04:23:51.877Z,99667.10
2022-11-05T04:26:23.511Z,99674.60
2022-11-05T04:29:10.704Z,99671.30
2022-11-05T04:31:38.792Z,99662.58
2022-11-05T04:34:06.562Z,99669.44
2022-11-05T04:36:34.234Z,99671.67
2022-11-05T04:39:02.404Z,99681.83
2022-11-05T04:41:30.169Z,99683.70
2022-11-05T04:43:57.906Z,99677.06
2022-11-05T04:46:26.176Z,99683.55
2022-11-05T04:48:53.930Z,99685.71
2022-11-05T04:51:21.796Z,99679.67
2022-11-05T04:53:50.027Z,99686.31
2022-11-05T04:56:20.849Z,99684.39
2022-11-05T04:58:48.986Z,99688.45
2022-11-05T05:01:20.206Z,99690.90
2022-11-05T05:03:53.301Z,99685.89
2022-11-05T05:06:22.569Z,99683.81
2022-11-05T05:08:51.337Z,99694.58
2022-11-05T05:11:22.151Z,99692.35
2022-11-05T05:13:50.897Z,99704.05
2022-11-05T05:16:23.857Z,99705.22
2022-11-05T05:18:52.755Z,99712.06
2022-11-05T05:21:41.118Z,99712.07
2022-11-05T05:24:18.549Z,99712.05
2022-11-05T05:26:48.878Z,99704.18
2022-11-05T05:29:18.248Z,99699.42
2022-11-05T05:31:46.035Z,99706.23
2022-11-05T05:34:14.761Z,99703.59
2022-11-05T05:36:42.822Z,99703.35
2022-11-05T05:39:11.117Z,99698.12
2022-11-05T05:41:39.233Z,99700.23
2022-11-05T05:44:07.282Z,99705.81
2022-11-05T05:46:35.340Z,99711.77
2022-11-05T05:49:07.876Z,99714.39
2022-11-05T05:51:39.536Z,99717.15
2022-11-05T05:54:07.968Z,99735.41
2022-11-05T05:56:35.631Z,99745.68
2022-11-05T05:59:08.503Z,99746.86
2022-11-05T06:01:36.574Z,99754.05
2022-11-05T06:04:04.688Z,99760.27
2022-11-05T06:06:32.807Z,99774.27
2022-11-05T06:09:00.858Z,99775.33
2022-11-05T06:11:28.829Z,99776.30
2022-11-05T06:13:57.637Z,99780.20
2022-11-05T06:16:25.571Z,99785.81
2022-11-05T06:18:53.558Z,99793.92
2022-11-05T06:21:21.354Z,99799.23
2022-11-05T06:23:49.998Z,99804.56
2022-11-05T06:26:19.086Z,99807.05
2022-11-05T06:28:47.141Z,99817.73
2022-11-05T06:31:16.777Z,99823.42
2022-11-05T06:33:44.843Z,99830.48
2022-11-05T06:36:18.282Z,99842.79
2022-11-05T06:38:47.345Z,99845.68
2022-11-05T06:41:15.820Z,99852.91
2022-11-05T06:43:44.004Z,99851.33
2022-11-05T06:46:12.460Z,99850.90
2022-11-05T06:48:40.562Z,99846.89
2022-11-05T06:51:09.420Z,99852.91
2022-11-05T06:53:37.316Z,99850.99
2022-11-05T06:56:06.665Z,99854.48
2022-11-05T06:58:34.714Z,99858.63
2022-11-05T07:01:04.725Z,99860.84
2022-11-05T07:03:32.931Z,99862.80
2022-11-05T07:06:01.641Z,99872.86
2022-11-05T07:08:34.030Z,99874.44
2022-11-05T07:11:02.097Z,99875.11
2022-11-05T07:13:30.340Z,99879.83
2022-11-05T07:15:58.179Z,99880.67
2022-11-05T07:18:26.242Z,99886.27
2022-11-05T07:20:54.169Z,99892.02
2022-11-05T07:23:21.948Z,99898.98
2022-11-05T07:25:49.908Z,99909.77
2022-11-05T07:28:17.863Z,99908.55
2022-11-05T07:30:45.713Z,99911.98
2022-11-05T07:33:15.043Z,99917.70
2022-11-05T07:35:42.990Z,99919.37
2022-11-05T07:38:11.237Z,99928.35
2022-11-05T07:40:39.389Z,99929.27
2022-11-05T07:43:08.858Z,99941.96
2022-11-05T07:45:36.861Z,99944.70
2022-11-05T07:48:05.412Z,99953.35
2022-11-05T07:50:35.654Z,99961.17
2022-11-05T07:53:06.184Z,99965.95
2022-11-05T07:55:34.869Z,99972.52
2022-11-05T07:58:03.203Z,99964.61
2022-11-05T08:00:31.039Z,99959.02
2022-11-05T08:03:07.720Z,99961.30
2022-11-05T08:05:41.271Z,99963.09
2022-11-05T08:08:10.201Z,99962.85
2022-11-05T08:10:38.916Z,99968.58
2022-11-05T08:13:07.638Z,99975.27
2022-11-05T08:15:36.536Z,99980.18
2022-11-05T08:18:07.268Z,99982.73
2022-11-05T08:20:36.101Z,99981.13
2022-11-05T08:23:04.616Z,99977.19
2022-11-05T08:25:32.486Z,99977.45
2022-11-05T08:28:02.744Z,99977.33
2022-11-05T08:30:32.057Z,99989.90
2022-11-05T08:33:02.794Z,99995.72
2022-11-05T08:35:31.389Z,99986.97
2022-11-05T08:38:00.705Z,99992.86
2022-11-05T08:40:29.695Z,100000.89
2022-11-05T08:42:58.480Z,100010.77
2022-11-05T08:45:27.332Z,100015.33
2022-11-05T08:48:18.118Z,100014.94
2022-11-05T08:50:48.330Z,100018.11
2022-11-05T08:53:16.873Z,100029.13
2022-11-05T08:55:47.568Z,100029.55
2022-11-05T08:58:19.071Z,100031.41
2022-11-05T09:00:49.696Z,100034.83
2022-11-05T09:03:17.852Z,100037.64
2022-11-05T09:05:46.346Z,100040.89
2022-11-05T09:08:18.982Z,100044.04
2022-11-05T09:10:49.749Z,100048.90
2022-11-05T09:13:19.864Z,100058.84
2022-11-05T09:15:49.691Z,100057.12
2022-11-05T09:18:19.096Z,100053.51
2022-11-05T09:20:47.629Z,100058.50
2022-11-05T09:23:15.878Z,100065.41
2022-11-05T09:25:45.654Z,100064.08
2022-11-05T09:28:20.397Z,100073.09
2022-11-05T09:30:52.717Z,100076.33
2022-11-05T09:33:23.449Z,100081.06
2022-11-05T09:35:53.865Z,100086.81
2022-11-05T09:38:21.892Z,100092.70
2022-11-05T09:41:01.732Z,100089.67
2022-11-05T09:43:43.931Z,100092.80
2022-11-05T09:46:18.834Z,100096.12
2022-11-05T09:48:54.410Z,100090.92
2022-11-05T09:51:24.317Z,100090.20
2022-11-05T09:53:54.738Z,100097.36
2022-11-05T09:56:29.448Z,100098.61
2022-11-05T09:59:02.587Z,100094.88
2022-11-05T10:01:38.186Z,100093.14
2022-11-05T10:04:10.155Z,100091.76
2022-11-05T10:06:48.859Z,100100.23
2022-11-05T10:09:29.085Z,100094.23
2022-11-05T10:12:11.800Z,100096.77
2022-11-05T10:15:14.546Z,100096.16
2022-11-05T10:17:47.834Z,100104.08
2022-11-05T10:20:22.279Z,100108.84
2022-11-05T10:23:00.591Z,100118.38
2022-11-05T10:25:32.996Z,100122.91
2022-11-05T10:28:01.582Z,100122.08
2022-11-05T10:30:29.764Z,100125.08
2022-11-05T10:33:00.680Z,100124.19
2022-11-05T10:35:33.286Z,100127.73
2022-11-05T10:38:02.404Z,100113.38
2022-11-05T10:40:57.688Z,100116.27
2022-11-05T10:43:34.542Z,100122.70
2022-11-05T10:46:24.153Z,100123.21
2022-11-05T10:49:12.069Z,100122.45
2022-11-05T10:51:40.014Z,100125.93
2022-11-05T10:54:19.376Z,100128.45
2022-11-05T10:56:47.615Z,100129.42
2022-11-05T10:59:29.723Z,100130.89
2022-11-05T11:02:04.356Z,100126.55
2022-11-05T11:04:37.685Z,100129.20
2022-11-05T11:07:17.139Z,100129.52
2022-11-05T11:09:47.353Z,100130.78
2022-11-05T11:12:26.048Z,100130.02
2022-11-05T11:15:15.468Z,100134.38
2022-11-05T11:17:43.198Z,100136.30
2022-11-05T11:20:22.704Z,100138.12
2022-11-05T11:23:16.972Z,100143.52
2022-11-05T11:25:51.091Z,100146.55
2022-11-05T11:28:34.952Z,100148.60
2022-11-05T11:31:15.413Z,100150.05
2022-11-05T11:33:49.537Z,100147.41
2022-11-05T11:36:20.106Z,100149.23
2022-11-05T11:38:48.097Z,100159.25
2022-11-05T11:41:29.832Z,100158.67
2022-11-05T11:44:04.741Z,100168.38
2022-11-05T11:46:34.849Z,100164.77
2022-11-05T11:49:04.227Z,100162.92
2022-11-05T11:51:31.899Z,100169.64
2022-11-05T11:54:01.209Z,100169.77
2022-11-05T11:56:30.533Z,100172.12
2022-11-05T11:59:19.428Z,100170.70
2022-11-05T12:02:22.018Z,100180.40
2022-11-05T12:05:08.301Z,100180.29
2022-11-05T12:07:52.757Z,100179.16
2022-11-05T12:10:55.101Z,100184.48
2022-11-05T12:13:23.387Z,100187.73
2022-11-05T12:16:09.808Z,100188.89
2022-11-05T12:18:42.423Z,100187.26
2022-11-05T12:21:50.913Z,100194.98
2022-11-05T12:24:28.129Z,100197.34
2022-11-05T12:26:59.145Z,100192.39
2022-11-05T12:29:47.877Z,100191.33
2022-11-05T12:32:50.929Z,100200.36
2022-11-05T12:35:53.357Z,100206.79
2022-11-05T12:38:43.000Z,100206.33
2022-11-05T12:41:22.676Z,100206.29
2022-11-05T12:44:02.416Z,100204.33
2022-11-05T12:46:57.887Z,100210.16
2022-11-05T12:49:36.328Z,100207.05
2022-11-05T12:52:16.855Z,100210.89
2022-11-05T12:55:05.583Z,100210.79
2022-11-05T12:57:38.844Z,100207.61
2022-11-05T13:00:26.952Z,100205.40
2022-11-05T13:02:57.723Z,100203.91
2022-11-05T13:05:40.047Z,100199.77
2022-11-05T13:08:33.377Z,100200.16
2022-11-05T13:11:13.756Z,100194.88
2022-11-05T13:13:54.403Z,100201.73
2022-11-05T13:16:28.280Z,100203.33
2022-11-05T13:19:20.532Z,100200.78
2022-11-05T13:21:54.597Z,100208.62
2022-11-05T13:24:32.009Z,100209.27
2022-11-05T13:27:12.628Z,100214.88
2022-11-05T13:29:55.546Z,100216.69
2022-11-05T13:32:47.107Z,100221.34
2022-11-05T13:35:26.041Z,100224.67
2022-11-05T13:38:17.315Z,100230.98
2022-11-05T13:41:11.268Z,100235.23
2022-11-05T13:43:53.858Z,100239.28
2022-11-05T13:47:09.313Z,100244.52
2022-11-05T13:49:55.253Z,100240.89
2022-11-05T13:52:41.461Z,100245.61
2022-11-05T13:55:31.386Z,100250.79
2022-11-05T13:58:33.368Z,100251.56
2022-11-05T14:01:32.050Z,100252.16
2022-11-05T14:04:00.638Z,100258.40
2022-11-05T14:06:36.077Z,100262.67
2022-11-05T14:09:09.909Z,100261.95
2022-11-05T14:11:41.882Z,100263.49
2022-11-05T14:14:23.173Z,100261.73
2022-11-05T14:17:14.052Z,100265.55
2022-11-05T14:20:04.436Z,100273.39
2022-11-05T14:22:32.244Z,100271.23
2022-11-05T14:25:02.170Z,100273.17
2022-11-05T14:27:29.822Z,100275.49
2022-11-05T14:29:57.807Z,100281.45
2022-11-05T14:32:50.152Z,100282.77
2022-11-05T14:35:17.880Z,100283.68
2022-11-05T14:37:59.437Z,100291.98
2022-11-05T14:40:44.323Z,100297.56
2022-11-05T14:43:15.250Z,100301.45
2022-11-05T14:46:06.591Z,100305.88
2022-11-05T14:48:49.626Z,100308.01
2022-11-05T14:51:30.153Z,100307.99
2022-11-05T14:54:04.942Z,100312.05
2022-11-05T14:56:44.007Z,100313.66
2022-11-05T14:59:51.239Z,100317.69
2022-11-05T15:02:24.011Z,100320.62
2022-11-05T15:05:30.628Z,100325.09
2022-11-05T15:07:59.780Z,100328.27
2022-11-05T15:10:31.872Z,100333.39
2022-11-05T15:13:06.153Z,100340.70
2022-11-05T15:15:49.074Z,100339.16
2022-11-05T15:18:28.203Z,100339.02
2022-11-05T15:21:00.974Z,100341.27
2022-11-05T15:23:46.648Z,100337.88
2022-11-05T15:26:41.650Z,100340.08
2022-11-05T15:29:19.598Z,100340.05
2022-11-05T15:31:49.157Z,100340.44
2022-11-05T15:34:29.998Z,100344.02
2022-11-05T15:37:03.939Z,100348.71
2022-11-05T15:39:40.692Z,100341.30
2022-11-05T15:42:26.079Z,100352.09
2022-11-05T15:44:59.109Z,100357.80
2022-11-05T15:47:31.946Z,100358.01
2022-11-05T15:50:02.036Z,100365.17
2022-11-05T15:52:36.650Z,100365.91
2022-11-05T15:55:13.342Z,100365.84
2022-11-05T15:57:50.684Z,100366.45
2022-11-05T16:00:28.076Z,100373.31
2022-11-05T16:03:00.628Z,100379.38
2022-11-05T16:05:32.873Z,100383.66
2022-11-05T16:08:02.408Z,100383.27
2022-11-05T16:10:32.421Z,100383.27
2022-11-05T16:13:34.189Z,100390.44
2022-11-05T16:16:05.972Z,100392.92
2022-11-05T16:18:36.372Z,100395.21
2022-11-05T16:21:08.092Z,100391.45
2022-11-05T16:23:44.803Z,100393.92
2022-11-05T16:29:39.030Z,100391.33
2022-11-05T16:32:16.957Z,100398.05
2022-11-05T16:34:53.936Z,100403.59
2022-11-05T16:37:26.346Z,100406.67
2022-11-05T16:39:54.124Z,100409.57
2022-11-05T16:42:26.025Z,100409.80
2022-11-05T16:44:55.399Z,100413.19
2022-11-05T16:47:23.056Z,100417.94
2022-11-05T16:49:51.077Z,100418.85
2022-11-05T16:52:19.092Z,100422.57
2022-11-05T16:54:46.854Z,100428.02
2022-11-05T16:57:27.109Z,100427.30
2022-11-05T16:59:56.067Z,100428.14
2022-11-05T17:02:23.982Z,100432.27
2022-11-05T17:04:53.003Z,100435.45
2022-11-05T17:07:20.985Z,100432.69
2022-11-05T17:09:48.721Z,100437.73
2022-11-05T17:12:16.765Z,100437.89
2022-11-05T17:14:44.598Z,100441.73
2022-11-05T17:17:12.308Z,100442.10
2022-11-05T17:19:44.080Z,100443.72
2022-11-05T17:22:12.585Z,100448.09
2022-11-05T17:24:40.376Z,100452.99
2022-11-05T17:27:08.138Z,100456.63
2022-11-05T17:29:35.951Z,100457.88
2022-11-05T17:32:05.865Z,100463.48
2022-11-05T17:34:33.600Z,100463.48
2022-11-05T17:37:01.568Z,100463.99
2022-11-05T17:39:31.849Z,100469.55
2022-11-05T17:42:02.333Z,100467.41
2022-11-05T17:44:30.146Z,100465.81
2022-11-05T17:46:57.849Z,100465.59
2022-11-05T17:49:25.595Z,100469.29
2022-11-05T17:51:54.021Z,100471.88
2022-11-05T17:54:21.765Z,100470.02
2022-11-05T17:56:49.450Z,100470.39
2022-11-05T17:59:17.428Z,100480.50
2022-11-05T18:01:46.042Z,100487.68
2022-11-05T18:04:15.467Z,100487.64
2022-11-05T18:06:43.611Z,100493.00
2022-11-05T18:09:12.905Z,100496.48
2022-11-05T18:11:41.202Z,100501.52
2022-11-05T18:14:09.763Z,100496.73
2022-11-05T18:16:37.813Z,100499.00
2022-11-05T18:19:05.843Z,100500.20
2022-11-05T18:21:33.933Z,100505.34
2022-11-05T18:24:06.043Z,100504.01
2022-11-05T18:26:34.494Z,100504.13
2022-11-05T18:29:03.787Z,100503.30
2022-11-05T18:31:31.674Z,100513.73
2022-11-05T18:34:00.149Z,100516.06
2022-11-05T18:36:30.541Z,100509.29
2022-11-05T18:39:01.712Z,100520.02
2022-11-05T18:41:30.303Z,100523.61
2022-11-05T18:43:59.969Z,100528.38
2022-11-05T18:46:56.368Z,100530.58
2022-11-05T18:49:17.067Z,100534.41
2022-11-05T18:51:44.889Z,100535.00
2022-11-05T18:54:12.684Z,100534.05
2022-11-05T18:56:45.367Z,100533.31
2022-11-05T19:02:08.476Z,100543.23
2022-11-05T19:04:36.972Z,100541.23
2022-11-05T19:07:06.069Z,100546.75
2022-11-05T19:09:34.784Z,100551.71
2022-11-05T19:12:04.100Z,100554.08
2022-11-05T19:14:31.820Z,100554.42
2022-11-05T19:17:01.202Z,100562.89
2022-11-05T19:19:29.308Z,100567.52
2022-11-05T19:21:56.975Z,100569.18
2022-11-05T19:24:24.984Z,100571.39
2022-11-05T19:26:52.999Z,100576.32
2022-11-05T19:29:20.748Z,100578.67
2022-11-05T19:31:48.839Z,100578.21
2022-11-05T19:34:16.537Z,100583.31
2022-11-05T19:36:44.464Z,100585.64
2022-11-05T19:39:14.520Z,100589.70
2022-11-05T19:41:42.551Z,100593.27
2022-11-05T19:44:10.396Z,100593.88
2022-11-05T19:46:38.618Z,100593.45
2022-11-05T19:49:06.339Z,100595.81
2022-11-05T19:51:34.353Z,100600.95
2022-11-05T19:54:03.759Z,100599.64
2022-11-05T19:56:34.293Z,100601.77
2022-11-05T19:59:03.439Z,100600.48
2022-11-05T20:01:31.726Z,100601.25
2022-11-05T20:04:02.522Z,100606.55
2022-11-05T20:06:34.466Z,100606.84
2022-11-05T20:09:23.010Z,100608.85
2022-11-05T20:11:54.411Z,100603.70
2022-11-05T20:14:23.948Z,100600.63
2022-11-05T20:16:52.414Z,100602.80
2022-11-05T20:19:22.147Z,100607.05
2022-11-05T20:21:50.174Z,100604.17
2022-11-05T20:24:24.791Z,100602.17
2022-11-05T20:26:54.843Z,100598.21
2022-11-05T20:29:24.141Z,100601.96
2022-11-05T20:31:52.649Z,100599.41
2022-11-05T20:34:20.421Z,100602.11
2022-11-05T20:36:48.198Z,100608.65
2022-11-05T20:39:18.297Z,100611.88
2022-11-05T20:41:46.225Z,100612.98
2022-11-05T20:44:14.083Z,100611.83
2022-11-05T20:46:41.844Z,100615.55
2022-11-05T20:49:09.810Z,100615.77
2022-11-05T20:51:37.844Z,100618.44
2022-11-05T20:54:08.937Z,100621.82
2022-11-05T20:56:36.940Z,100623.64
2022-11-05T20:59:05.627Z,100624.21
2022-11-05T21:01:34.619Z,100626.17
2022-11-05T21:04:03.165Z,100629.55
2022-11-05T21:06:31.652Z,100633.10
2022-11-05T21:08:59.525Z,100632.17
2022-11-05T21:11:28.216Z,100628.10
2022-11-05T21:13:55.949Z,100629.58
2022-11-05T21:16:23.798Z,100627.63
2022-11-05T21:18:51.731Z,100626.91
2022-11-05T21:21:20.655Z,100627.18
2022-11-05T21:23:48.542Z,100628.16
2022-11-05T21:26:17.909Z,100633.80
2022-11-05T21:28:46.847Z,100632.66
2022-11-05T21:31:14.766Z,100630.27
2022-11-05T21:33:42.685Z,100631.87
2022-11-05T21:36:12.292Z,100636.25
2022-11-05T21:38:40.989Z,100637.12
2022-11-05T21:41:11.321Z,100637.13
2022-11-05T21:43:39.664Z,100634.08
2022-11-05T21:46:07.463Z,100635.51
2022-11-05T21:48:36.348Z,100634.73
2022-11-05T21:51:22.894Z,100638.11
2022-11-05T21:54:09.776Z,100635.41
2022-11-05T21:56:56.273Z,100639.59
2022-11-05T21:59:43.729Z,100639.96
2022-11-05T22:02:13.999Z,100640.83
2022-11-05T22:04:48.726Z,100640.85
2022-11-05T22:07:22.288Z,100643.81
2022-11-05T22:09:50.340Z,100643.66
2022-11-05T22:12:18.207Z,100641.29
2022-11-05T22:14:45.949Z,100643.73
2022-11-05T22:17:14.956Z,100642.91
2022-11-05T22:19:42.700Z,100642.45
2022-11-05T22:22:10.841Z,100644.75
2022-11-05T22:24:39.695Z,100652.25
2022-11-05T22:27:11.964Z,100650.89
2022-11-05T22:29:40.156Z,100647.29
2022-11-05T22:32:07.978Z,100647.85
2022-11-05T22:34:35.725Z,100646.85
2022-11-05T22:37:03.931Z,100645.66
2022-11-05T22:39:31.999Z,100644.69
2022-11-05T22:42:04.227Z,100649.78
2022-11-05T22:44:35.186Z,100650.20
2022-11-05T22:47:03.056Z,100654.57
2022-11-05T22:49:30.894Z,100658.45
2022-11-05T22:51:59.455Z,100658.71
2022-11-05T22:54:27.287Z,100662.39
2022-11-05T22:56:55.041Z,100662.63
2022-11-05T22:59:23.042Z,100665.12
2022-11-05T23:01:50.828Z,100662.08
2022-11-05T23:04:18.673Z,100662.61
2022-11-05T23:07:05.429Z,100660.22
2022-11-05T23:09:53.402Z,100658.14
2022-11-05T23:12:30.920Z,100657.11
2022-11-05T23:15:00.067Z,100659.36
2022-11-05T23:17:47.140Z,100656.77
2022-11-05T23:20:38.470Z,100654.18
2022-11-05T23:23:40.031Z,100658.71
2022-11-05T23:26:28.004Z,100658.36
2022-11-05T23:28:55.973Z,100657.03
2022-11-05T23:31:42.456Z,100659.17
2022-11-05T23:34:10.223Z,100661.86
2022-11-05T23:37:10.259Z,100665.05
2022-11-05T23:39:42.361Z,100661.29
2022-11-05T23:42:29.578Z,100665.13
2022-11-05T23:45:16.248Z,100664.45
2022-11-05T23:48:02.487Z,100662.55
2022-11-05T23:50:36.923Z,100660.34
2022-11-05T23:53:06.954Z,100660.88
2022-11-05T23:55:35.985Z,100670.74
2022-11-05T23:58:03.738Z,100672.81
